Time;durP1;ratioP1;P1;durP2;ratioP2;P2;SDS_P1;SDS_P2;PMS_P1;PMS_P2;Temp;Humidity;BMP_temperature;BMP_pressure;BME280_temperature;BME280_humidity;BME280_pressure;Samples;Min_cycle;Max_cycle;Signal;HPM_P1;HPM_P2
2021/05/09 00:00:18;;;;;;;2.43;1.60;;;;;;;15.37;46.54;99602.00;5081946;28;20471;-70
2021/05/09 00:02:44;;;;;;;1.93;1.70;;;;;;;15.40;46.49;99598.94;5071774;28;20452;-70
2021/05/09 00:05:11;;;;;;;1.70;1.57;;;;;;;15.27;46.63;99601.47;5062633;28;20532;-70
2021/05/09 00:07:37;;;;;;;3.50;1.57;;;;;;;15.30;46.52;99598.41;5077549;28;20494;-69
2021/05/09 00:10:05;;;;;;;3.03;1.63;;;;;;;15.39;46.69;99597.25;5082201;28;20458;-70
2021/05/09 00:12:31;;;;;;;5.57;2.10;;;;;;;15.21;46.82;99599.53;5080891;28;20478;-68
2021/05/09 00:14:58;;;;;;;2.60;2.00;;;;;;;15.16;47.17;99602.75;5072004;28;20499;-69
2021/05/09 00:17:24;;;;;;;1.60;1.50;;;;;;;15.16;47.29;99601.94;5070853;28;20477;-70
2021/05/09 00:19:50;;;;;;;6.67;2.60;;;;;;;15.39;46.77;99607.19;5062867;28;20523;-71
2021/05/09 00:22:16;;;;;;;2.23;2.03;;;;;;;15.19;47.15;99601.53;5063277;28;20492;-67
2021/05/09 00:24:42;;;;;;;2.23;1.87;;;;;;;15.01;47.38;99593.84;5062717;28;20495;-69
2021/05/09 00:27:09;;;;;;;3.27;1.57;;;;;;;15.20;46.98;99598.66;5073705;28;20487;-69
2021/05/09 00:29:35;;;;;;;1.97;1.50;;;;;;;15.14;47.07;99591.34;5082204;28;20466;-71
2021/05/09 00:32:02;;;;;;;2.03;1.70;;;;;;;15.22;46.82;99599.34;5064971;28;20481;-70
2021/05/09 00:34:28;;;;;;;2.50;1.70;;;;;;;15.16;47.34;99591.16;5061069;28;20876;-69
2021/05/09 00:36:54;;;;;;;3.77;1.80;;;;;;;15.22;46.98;99591.25;5054041;28;20567;-69
2021/05/09 00:39:20;;;;;;;2.30;1.80;;;;;;;15.21;47.14;99589.59;5059739;28;20449;-68
2021/05/09 00:41:46;;;;;;;3.60;2.00;;;;;;;15.16;47.12;99602.75;5061342;28;20487;-68
2021/05/09 00:44:13;;;;;;;2.50;2.00;;;;;;;15.17;47.41;99590.13;5062015;28;20463;-68
2021/05/09 00:46:39;;;;;;;2.63;2.07;;;;;;;15.09;47.83;99588.38;5051393;28;20498;-69
2021/05/09 00:49:06;;;;;;;4.83;2.27;;;;;;;15.17;47.61;99582.91;5042267;28;20456;-70
2021/05/09 00:51:32;;;;;;;6.67;1.80;;;;;;;15.19;47.73;99586.25;5042138;28;20521;-70
2021/05/09 00:53:59;;;;;;;2.90;2.07;;;;;;;15.23;47.80;99587.53;5042654;28;20434;-70
2021/05/09 00:56:25;;;;;;;2.20;1.90;;;;;;;15.19;48.01;99586.25;5052394;28;20772;-70
2021/05/09 00:58:53;;;;;;;3.87;2.23;;;;;;;15.06;48.51;99581.50;5048242;28;20480;-69
2021/05/09 01:01:20;;;;;;;3.50;1.83;;;;;;;15.15;48.23;99581.41;5054367;28;20473;-70
2021/05/09 01:03:47;;;;;;;2.13;1.90;;;;;;;15.29;48.18;99580.56;5042135;28;20473;-69
2021/05/09 01:06:13;;;;;;;4.10;2.27;;;;;;;15.47;47.75;99582.00;5041260;28;20509;-70
2021/05/09 01:08:39;;;;;;;5.10;2.03;;;;;;;15.24;48.31;99585.66;5045612;28;20468;-70
2021/05/09 01:11:06;;;;;;;3.23;1.73;;;;;;;15.18;48.88;99583.75;5060185;28;20510;-70
2021/05/09 01:13:33;;;;;;;2.30;1.80;;;;;;;15.20;48.65;99576.31;5060844;28;20568;-71
2021/05/09 01:16:00;;;;;;;1.90;1.57;;;;;;;15.19;48.75;99578.16;5061031;28;20472;-70
2021/05/09 01:18:27;;;;;;;3.50;1.80;;;;;;;14.99;49.21;99577.88;5061121;28;20536;-69
2021/05/09 01:20:55;;;;;;;3.00;1.70;;;;;;;15.20;48.96;99562.84;5061280;28;20477;-71
2021/05/09 01:23:21;;;;;;;3.03;1.80;;;;;;;15.06;48.84;99569.91;5059213;28;20485;-70
2021/05/09 01:25:47;;;;;;;2.47;2.10;;;;;;;14.96;49.25;99570.19;5040183;28;20478;-70
2021/05/09 01:28:13;;;;;;;2.03;1.80;;;;;;;14.86;49.76;99558.88;5042837;28;20536;-69
2021/05/09 01:30:40;;;;;;;1.90;1.63;;;;;;;15.10;49.03;99570.38;5042486;28;20493;-70
2021/05/09 01:33:06;;;;;;;2.37;1.30;;;;;;;15.00;49.37;99562.59;5047891;28;20438;-69
2021/05/09 01:35:33;;;;;;;2.40;1.60;;;;;;;14.95;49.43;99559.63;5040966;28;20482;-70
2021/05/09 01:38:00;;;;;;;1.90;1.70;;;;;;;15.02;49.51;99557.84;5042663;28;20453;-70
2021/05/09 01:40:26;;;;;;;2.10;1.90;;;;;;;15.02;49.47;99552.47;5040528;28;20520;-69
2021/05/09 01:42:52;;;;;;;3.80;2.07;;;;;;;14.90;49.87;99551.25;5049678;28;20518;-69
2021/05/09 01:45:18;;;;;;;2.20;1.87;;;;;;;14.88;50.14;99560.34;5044299;28;20512;-69
2021/05/09 01:47:44;;;;;;;3.27;1.83;;;;;;;14.92;50.10;99560.00;5060626;28;20472;-69
2021/05/09 01:50:13;;;;;;;2.40;1.70;;;;;;;14.96;49.71;99550.50;5058980;28;20441;-70
2021/05/09 01:52:39;;;;;;;3.70;1.90;;;;;;;14.84;50.18;99553.69;5044036;28;20466;-70
2021/05/09 01:55:09;;;;;;;4.90;2.17;;;;;;;15.05;50.01;99550.22;5042323;28;20506;-67
2021/05/09 01:57:35;;;;;;;2.40;1.80;;;;;;;15.01;49.94;99550.78;5040906;28;20449;-70
2021/05/09 02:00:01;;;;;;;3.23;2.10;;;;;;;14.99;50.13;99556.34;5042608;28;20488;-71
2021/05/09 02:02:27;;;;;;;3.83;1.77;;;;;;;15.04;50.12;99553.94;5044528;28;20470;-71
2021/05/09 02:04:53;;;;;;;1.70;1.50;;;;;;;14.97;49.69;99553.00;5041127;28;20469;-71
2021/05/09 02:07:19;;;;;;;2.87;1.90;;;;;;;15.02;50.03;99555.97;5059063;28;20479;-70
2021/05/09 02:09:46;;;;;;;1.83;1.67;;;;;;;14.88;50.31;99552.28;5040677;28;20486;-70
2021/05/09 02:12:13;;;;;;;2.03;1.83;;;;;;;14.85;50.25;99552.63;5058584;28;20537;-71
2021/05/09 02:14:39;;;;;;;2.10;1.57;;;;;;;14.92;50.26;99562.69;5061388;28;20825;-70
2021/05/09 02:17:05;;;;;;;1.97;1.43;;;;;;;14.67;50.91;99546.81;5056101;28;20496;-73
2021/05/09 02:19:31;;;;;;;3.03;1.70;;;;;;;14.86;50.67;99543.56;5060555;28;20453;-69
2021/05/09 02:21:57;;;;;;;2.47;1.70;;;;;;;14.89;50.30;99545.03;5058528;28;20476;-72
2021/05/09 02:24:24;;;;;;;3.30;2.10;;;;;;;14.81;50.50;99540.59;5050106;28;20456;-71
2021/05/09 02:26:51;;;;;;;2.80;2.10;;;;;;;15.12;49.86;99542.25;5050578;28;20491;-69
2021/05/09 02:29:18;;;;;;;3.03;2.00;;;;;;;14.96;49.99;99542.44;5059870;28;20568;-72
2021/05/09 02:31:44;;;;;;;5.23;2.20;;;;;;;14.82;50.82;99550.31;5059782;28;20475;-71
2021/05/09 02:34:10;;;;;;;2.57;1.90;;;;;;;14.90;50.58;99544.03;5046659;28;20438;-70
2021/05/09 02:36:36;;;;;;;1.93;1.73;;;;;;;14.92;50.11;99547.34;5051489;28;20480;-72
2021/05/09 02:39:03;;;;;;;3.50;2.07;;;;;;;14.49;51.04;99534.50;5051558;28;20544;-74
2021/05/09 02:41:29;;;;;;;5.30;2.13;;;;;;;14.80;50.75;99540.78;5043737;28;20998;-75
2021/05/09 02:43:56;;;;;;;2.20;1.90;;;;;;;14.80;50.75;99538.91;5044976;28;20455;-72
2021/05/09 02:46:23;;;;;;;3.30;2.10;;;;;;;14.84;50.74;99536.69;5045080;28;20486;-71
2021/05/09 02:48:49;;;;;;;2.20;1.97;;;;;;;14.74;51.02;99528.91;5053903;28;20473;-71
2021/05/09 02:51:15;;;;;;;2.03;1.90;;;;;;;14.68;51.16;99529.63;5064136;28;20472;-74
2021/05/09 02:53:41;;;;;;;3.07;1.97;;;;;;;14.88;50.65;99530.75;5045769;28;20481;-72
2021/05/09 02:56:07;;;;;;;2.33;1.90;;;;;;;14.97;50.31;99530.66;5048559;28;21067;-70
2021/05/09 02:58:33;;;;;;;3.27;1.83;;;;;;;14.88;50.40;99527.22;5046694;28;20523;-74
2021/05/09 03:00:59;;;;;;;1.70;1.60;;;;;;;14.69;50.99;99515.16;5047714;28;20476;-76
2021/05/09 03:03:27;;;;;;;2.50;1.50;;;;;;;14.80;50.88;99524.63;5048523;28;20481;-75
2021/05/09 03:05:53;;;;;;;5.63;2.00;;;;;;;14.65;51.39;99527.31;5043808;28;20485;-74
2021/05/09 03:08:19;;;;;;;2.17;1.80;;;;;;;14.56;51.59;99517.63;5057695;28;20536;-75
2021/05/09 03:10:45;;;;;;;2.47;2.10;;;;;;;14.69;51.31;99517.84;5062033;28;20747;-74
2021/05/09 03:13:11;;;;;;;2.10;1.87;;;;;;;14.65;51.36;99521.91;5064225;28;20465;-71
2021/05/09 03:15:37;;;;;;;2.80;1.70;;;;;;;14.63;51.55;99510.50;5066377;28;20500;-70
2021/05/09 03:18:04;;;;;;;2.87;1.73;;;;;;;14.94;50.98;99510.31;5074488;28;20923;-69
2021/05/09 03:20:31;;;;;;;1.90;1.80;;;;;;;14.72;51.41;99504.03;5076077;28;20477;-69
2021/05/09 03:22:57;;;;;;;4.77;2.20;;;;;;;14.84;51.34;99509.75;5063929;28;20482;-72
2021/05/09 03:25:23;;;;;;;1.93;1.73;;;;;;;14.90;51.21;99510.91;5068820;28;20507;-75
2021/05/09 03:27:50;;;;;;;2.80;2.00;;;;;;;14.66;51.80;99505.59;5063279;28;20456;-74
2021/05/09 03:30:16;;;;;;;1.77;1.60;;;;;;;14.77;51.34;99503.47;5064044;28;20445;-72
2021/05/09 03:32:42;;;;;;;6.13;2.47;;;;;;;14.77;51.77;99504.31;5081335;28;20496;-71
2021/05/09 03:35:10;;;;;;;3.00;2.30;;;;;;;15.02;50.91;99502.16;5082840;28;20481;-75
2021/05/09 03:37:37;;;;;;;3.30;2.03;;;;;;;14.90;51.13;99492.88;5063380;28;20449;-72
2021/05/09 03:40:05;;;;;;;2.77;2.00;;;;;;;14.86;51.75;99503.19;5062926;28;20498;-77
2021/05/09 03:42:31;;;;;;;4.63;3.13;;;;;;;15.21;50.66;99499.91;5065751;28;20465;-74
2021/05/09 03:44:58;;;;;;;1.70;1.60;;;;;;;14.99;51.29;99497.13;5063351;28;20500;-76
2021/05/09 03:47:26;;;;;;;3.10;1.93;;;;;;;15.27;50.52;99499.13;5077680;28;20472;-73
2021/05/09 03:49:52;;;;;;;2.80;1.90;;;;;;;15.17;50.94;99494.06;5083024;28;20459;-74
2021/05/09 03:52:18;;;;;;;4.10;1.83;;;;;;;15.40;50.22;99498.44;5078474;28;20499;-70
2021/05/09 03:54:45;;;;;;;2.23;1.90;;;;;;;16.12;48.50;99493.97;5083235;28;20443;-70
2021/05/09 03:57:12;;;;;;;2.13;1.77;;;;;;;16.33;47.86;99496.59;5080229;28;20517;-68
2021/05/09 03:59:38;;;;;;;3.03;1.80;;;;;;;16.56;47.05;99499.06;5082995;28;20454;-69
2021/05/09 04:02:04;;;;;;;1.90;1.80;;;;;;;16.97;46.34;99497.44;5079885;28;20551;-68
2021/05/09 04:04:30;;;;;;;2.00;1.77;;;;;;;16.56;47.19;99500.91;5083096;28;20498;-70
2021/05/09 04:06:56;;;;;;;3.17;1.90;;;;;;;16.35;47.93;99493.72;5068120;28;21072;-69
2021/05/09 04:09:22;;;;;;;2.90;1.77;;;;;;;16.17;48.58;99491.53;5061873;28;20480;-70
2021/05/09 04:11:49;;;;;;;3.90;1.70;;;;;;;16.53;47.84;99493.22;5061322;28;20511;-69
2021/05/09 04:14:16;;;;;;;3.60;1.70;;;;;;;16.41;48.28;99486.72;5062963;28;20437;-69
2021/05/09 04:16:42;;;;;;;2.50;1.90;;;;;;;16.54;47.95;99497.56;5061119;28;20504;-67
2021/05/09 04:19:08;;;;;;;2.67;1.80;;;;;;;16.57;47.71;99498.00;5061569;28;20910;-69
2021/05/09 04:21:34;;;;;;;2.70;2.10;;;;;;;17.16;46.36;99503.13;5074209;28;20472;-68
2021/05/09 04:24:00;;;;;;;2.50;1.67;;;;;;;17.02;46.63;99500.38;5068363;28;20910;-69
2021/05/09 04:26:26;;;;;;;2.13;1.93;;;;;;;16.80;47.21;99498.78;5068544;28;20505;-68
2021/05/09 04:28:53;;;;;;;2.70;1.67;;;;;;;16.99;46.60;99500.75;5061473;28;20578;-70
2021/05/09 04:31:19;;;;;;;4.33;1.90;;;;;;;17.30;46.26;99508.34;5052398;28;20480;-70
2021/05/09 04:33:46;;;;;;;2.43;1.77;;;;;;;18.85;42.53;99503.88;5049964;28;20492;-69
2021/05/09 04:36:12;;;;;;;3.80;2.00;;;;;;;18.35;43.27;99499.78;5070062;28;20569;-69
2021/05/09 04:38:38;;;;;;;1.70;1.60;;;;;;;19.64;40.38;99491.00;5081339;28;20452;-68
2021/05/09 04:41:04;;;;;;;2.30;1.70;;;;;;;20.20;39.63;99500.22;5072646;28;20518;-69
2021/05/09 04:43:31;;;;;;;2.03;1.40;;;;;;;21.44;36.63;99500.97;5062167;28;20473;-69
2021/05/09 04:45:58;;;;;;;2.50;1.77;;;;;;;20.62;38.02;99492.31;5067042;28;20489;-68
2021/05/09 04:48:24;;;;;;;1.67;1.57;;;;;;;21.59;36.58;99489.66;5079784;28;20475;-70
2021/05/09 04:50:50;;;;;;;1.60;1.43;;;;;;;21.27;36.87;99490.97;5081489;28;20479;-70
2021/05/09 04:53:24;;;;;;;1.73;1.53;;;;;;;19.98;39.44;99480.78;5081004;28;20541;-70
2021/05/09 04:55:50;;;;;;;3.43;1.70;;;;;;;20.04;40.14;99488.03;5080949;28;20471;-70
2021/05/09 04:58:16;;;;;;;1.40;1.30;;;;;;;20.04;39.68;99493.47;5081027;28;20470;-70
2021/05/09 05:00:43;;;;;;;2.27;1.40;;;;;;;20.85;38.06;99494.41;5069039;28;20468;-70
2021/05/09 05:03:10;;;;;;;2.50;1.70;;;;;;;20.20;39.60;99489.38;5063241;28;20452;-69
2021/05/09 05:05:36;;;;;;;3.73;1.60;;;;;;;20.45;39.28;99482.03;5060994;28;20473;-69
2021/05/09 05:08:02;;;;;;;2.10;1.80;;;;;;;21.91;36.78;99475.81;5063881;28;20675;-70
2021/05/09 05:10:28;;;;;;;3.70;1.80;;;;;;;22.07;35.98;99471.56;5088066;28;20475;-68
2021/05/09 05:12:54;;;;;;;1.90;1.67;;;;;;;23.12;34.08;99467.13;5084648;28;20452;-69
2021/05/09 05:15:20;;;;;;;3.53;1.43;;;;;;;21.85;36.11;99468.56;5075193;28;20440;-68
2021/05/09 05:17:46;;;;;;;2.70;1.20;;;;;;;22.23;35.55;99475.47;5078257;28;20444;-69
2021/05/09 05:20:15;;;;;;;1.63;1.50;;;;;;;22.96;34.47;99475.19;5080172;28;20591;-68
2021/05/09 05:22:41;;;;;;;2.37;1.30;;;;;;;24.37;32.74;99477.22;5081282;28;20937;-67
2021/05/09 05:25:08;;;;;;;3.33;1.60;;;;;;;22.92;34.32;99474.84;5081125;28;20540;-67
2021/05/09 05:27:34;;;;;;;1.77;1.20;;;;;;;23.84;32.90;99465.72;5066835;28;20496;-68
2021/05/09 05:30:00;;;;;;;2.03;1.33;;;;;;;24.30;32.20;99478.47;5061224;28;20927;-68
2021/05/09 05:32:26;;;;;;;2.57;1.63;;;;;;;23.66;33.02;99469.50;5078919;28;20884;-68
2021/05/09 05:34:52;;;;;;;1.40;1.30;;;;;;;22.73;34.99;99475.00;5081820;28;20525;-68
2021/05/09 05:37:19;;;;;;;2.93;1.33;;;;;;;22.61;35.21;99476.91;5079371;28;20567;-67
2021/05/09 05:39:45;;;;;;;3.93;1.70;;;;;;;22.05;36.33;99490.03;5080886;28;20460;-67
2021/05/09 05:42:11;;;;;;;1.90;1.60;;;;;;;22.53;35.82;99490.91;5067561;28;20477;-67
2021/05/09 05:44:38;;;;;;;2.20;1.30;;;;;;;22.89;34.94;99491.69;5078884;28;20449;-67
2021/05/09 05:47:04;;;;;;;2.70;1.70;;;;;;;23.78;33.10;99490.41;5066896;28;20519;-68
2021/05/09 05:49:30;;;;;;;1.80;1.33;;;;;;;23.87;33.40;99491.72;5061201;28;20436;-69
2021/05/09 05:51:56;;;;;;;2.00;1.40;;;;;;;25.75;29.84;99504.66;5061709;28;20615;-69
2021/05/09 05:54:25;;;;;;;2.70;1.30;;;;;;;24.04;32.17;99498.03;5062787;28;20472;-68
2021/05/09 05:56:51;;;;;;;2.33;1.40;;;;;;;24.02;32.65;99502.88;5059928;28;20468;-67
2021/05/09 05:59:17;;;;;;;2.60;1.60;;;;;;;23.01;34.27;99499.84;5063414;28;20449;-68
2021/05/09 06:01:43;;;;;;;1.87;1.60;;;;;;;24.62;31.45;99478.69;5073015;28;20559;-68
2021/05/09 06:04:09;;;;;;;2.30;1.40;;;;;;;22.99;34.59;99493.81;5073183;28;20483;-68
2021/05/09 06:06:35;;;;;;;1.63;1.27;;;;;;;24.54;32.13;99501.00;5074675;28;20488;-69
2021/05/09 06:09:03;;;;;;;2.23;1.70;;;;;;;23.87;33.15;99494.44;5077584;28;20491;-68
2021/05/09 06:11:30;;;;;;;3.50;1.77;;;;;;;24.10;32.64;99496.19;5081810;28;20549;-69
2021/05/09 06:13:56;;;;;;;1.50;1.20;;;;;;;24.51;32.07;99504.19;5083341;28;20546;-68
2021/05/09 06:16:22;;;;;;;3.20;1.43;;;;;;;24.59;32.25;99504.63;5084228;28;20507;-69
2021/05/09 06:18:48;;;;;;;1.70;1.30;;;;;;;23.30;33.84;99508.94;5081783;28;20487;-68
2021/05/09 06:21:14;;;;;;;1.50;1.37;;;;;;;23.63;34.25;99500.00;5069526;28;20510;-68
2021/05/09 06:23:40;;;;;;;2.00;1.20;;;;;;;25.18;31.21;99497.72;5082472;28;20539;-68
2021/05/09 06:26:06;;;;;;;3.73;1.40;;;;;;;24.95;31.34;99490.63;5083724;28;20563;-68
2021/05/09 06:28:34;;;;;;;2.60;1.50;;;;;;;23.75;33.14;99499.94;5077822;28;20519;-68
2021/05/09 06:31:00;;;;;;;3.50;1.80;;;;;;;24.55;32.10;99494.47;5063076;28;20506;-69
2021/05/09 06:33:26;;;;;;;3.20;1.30;;;;;;;25.17;30.94;99491.44;5084010;28;20475;-68
2021/05/09 06:35:53;;;;;;;2.70;1.47;;;;;;;26.25;29.49;99489.78;5084024;28;20487;-67
2021/05/09 06:38:20;;;;;;;2.30;1.20;;;;;;;26.33;29.07;99501.34;5065624;28;20456;-68
2021/05/09 06:40:46;;;;;;;1.87;1.40;;;;;;;26.19;28.90;99485.34;5066123;28;20525;-67
2021/05/09 06:43:12;;;;;;;3.50;1.47;;;;;;;27.01;28.71;99491.34;5074335;28;20499;-67
2021/05/09 06:45:39;;;;;;;2.30;1.33;;;;;;;26.47;29.04;99492.41;5063347;28;20541;-68
2021/05/09 06:48:06;;;;;;;2.97;1.57;;;;;;;25.46;30.76;99483.03;5075735;28;20963;-68
2021/05/09 06:50:33;;;;;;;2.70;1.77;;;;;;;25.76;30.77;99481.66;5068919;28;20574;-67
2021/05/09 06:53:00;;;;;;;2.90;1.37;;;;;;;26.47;29.64;99486.09;5080279;28;20451;-67
2021/05/09 06:55:26;;;;;;;3.57;1.43;;;;;;;27.67;27.78;99483.59;5080867;28;20641;-68
2021/05/09 06:57:53;;;;;;;1.30;1.13;;;;;;;27.46;27.55;99482.72;5081393;28;20538;-68
2021/05/09 07:00:20;;;;;;;3.33;1.47;;;;;;;27.17;27.97;99472.22;5077010;28;20497;-68
2021/05/09 07:02:48;;;;;;;2.00;1.57;;;;;;;27.33;27.44;99475.84;5069744;28;20577;-67
2021/05/09 07:05:14;;;;;;;1.60;1.10;;;;;;;27.10;28.17;99477.94;5075012;28;20587;-67
2021/05/09 07:07:50;;;;;;;4.57;1.40;;;;;;;27.12;28.19;99470.25;5065532;28;20550;-68
2021/05/09 07:10:17;;;;;;;2.83;1.53;;;;;;;26.53;29.46;99478.75;5072539;28;20467;-68
2021/05/09 07:12:43;;;;;;;1.70;1.30;;;;;;;27.57;27.85;99463.25;5071482;28;20499;-67
2021/05/09 07:15:11;;;;;;;2.20;1.47;;;;;;;27.14;28.21;99465.31;5081628;28;20817;-67
2021/05/09 07:17:37;;;;;;;2.47;1.57;;;;;;;25.53;30.44;99464.47;5072002;28;20978;-68
2021/05/09 07:20:06;;;;;;;2.43;1.30;;;;;;;26.46;28.95;99460.59;5079265;28;20484;-67
2021/05/09 07:22:36;;;;;;;4.10;1.50;;;;;;;27.40;27.59;99458.00;5075781;28;20571;-67
2021/05/09 07:25:03;;;;;;;1.97;1.10;;;;;;;27.52;27.72;99460.50;5083638;28;20450;-68
2021/05/09 07:27:29;;;;;;;3.83;1.37;;;;;;;28.17;26.54;99458.09;5079337;28;20583;-67
2021/05/09 07:29:55;;;;;;;1.90;1.17;;;;;;;30.87;23.49;99463.28;5080793;28;20486;-68
2021/05/09 07:32:21;;;;;;;1.90;1.00;;;;;;;28.99;25.33;99454.31;5081579;28;20567;-67
2021/05/09 07:34:47;;;;;;;1.67;1.13;;;;;;;28.88;25.99;99441.69;5082118;28;20464;-67
2021/05/09 07:37:14;;;;;;;1.47;1.00;;;;;;;27.10;28.18;99453.25;5079163;28;20508;-67
2021/05/09 07:39:40;;;;;;;4.73;1.20;;;;;;;30.54;23.50;99454.84;5079570;28;20452;-68
2021/05/09 07:42:07;;;;;;;2.40;1.40;;;;;;;30.97;22.64;99454.91;5062255;28;20505;-68
2021/05/09 07:44:33;;;;;;;3.23;1.10;;;;;;;28.19;26.38;99444.06;5062540;28;21194;-68
2021/05/09 07:46:59;;;;;;;3.20;1.40;;;;;;;29.90;23.90;99443.03;5062049;28;21092;-68
2021/05/09 07:49:25;;;;;;;1.37;1.03;;;;;;;30.04;23.80;99441.25;5059889;28;20463;-68
2021/05/09 07:51:51;;;;;;;2.37;1.10;;;;;;;30.47;23.34;99437.81;5059859;28;20930;-69
2021/05/09 07:54:18;;;;;;;1.77;1.10;;;;;;;26.92;27.51;99429.03;5062666;28;20472;-67
2021/05/09 07:56:44;;;;;;;1.70;1.20;;;;;;;26.76;28.29;99426.22;5061746;28;20508;-68
2021/05/09 07:59:10;;;;;;;1.90;1.10;;;;;;;27.38;27.08;99426.47;5062039;28;20467;-68
2021/05/09 08:01:37;;;;;;;2.40;1.20;;;;;;;28.86;24.96;99424.66;5072198;28;20889;-68
2021/05/09 08:04:04;;;;;;;2.17;1.30;;;;;;;30.13;23.68;99422.13;5076304;28;20464;-68
2021/05/09 08:06:30;;;;;;;2.07;1.40;;;;;;;28.88;25.63;99423.25;5080655;28;20483;-68
2021/05/09 08:08:56;;;;;;;3.97;1.13;;;;;;;28.03;26.02;99418.53;5079625;28;20462;-68
2021/05/09 08:11:23;;;;;;;1.93;1.23;;;;;;;28.78;25.46;99416.97;5070355;28;20472;-67
2021/05/09 08:13:49;;;;;;;1.67;1.13;;;;;;;27.74;26.56;99416.31;5062743;28;20468;-69
2021/05/09 08:16:16;;;;;;;2.07;1.30;;;;;;;28.11;25.52;99417.97;5061663;28;20503;-68
2021/05/09 08:18:42;;;;;;;1.63;1.10;;;;;;;27.23;26.59;99411.56;5062862;28;20805;-69
2021/05/09 08:21:08;;;;;;;1.57;1.20;;;;;;;27.46;26.61;99409.44;5049700;28;20524;-67
2021/05/09 08:23:37;;;;;;;2.60;1.20;;;;;;;27.20;26.66;99403.03;5062693;28;20483;-69
2021/05/09 08:26:04;;;;;;;1.17;0.90;;;;;;;27.73;26.06;99413.84;5060823;28;20710;-68
2021/05/09 08:28:31;;;;;;;2.50;1.40;;;;;;;27.27;26.93;99414.59;5058362;28;20457;-69
2021/05/09 08:30:57;;;;;;;2.53;1.13;;;;;;;27.79;25.39;99413.59;5052634;28;20511;-68
2021/05/09 08:33:23;;;;;;;2.97;1.30;;;;;;;27.49;26.01;99419.88;5058223;28;20808;-68
2021/05/09 08:35:49;;;;;;;1.83;1.17;;;;;;;29.97;23.30;99421.47;5058473;28;20523;-69
2021/05/09 08:38:15;;;;;;;1.63;1.20;;;;;;;27.21;25.61;99416.50;5058261;28;20492;-69
2021/05/09 08:40:42;;;;;;;1.93;1.00;;;;;;;27.94;25.32;99414.69;5063533;28;20507;-68
2021/05/09 08:43:08;;;;;;;1.33;1.20;;;;;;;29.25;23.05;99407.38;5080779;28;20482;-68
2021/05/09 08:45:35;;;;;;;1.40;0.90;;;;;;;26.38;26.96;99408.19;5074708;28;20530;-68
2021/05/09 08:48:01;;;;;;;1.80;1.03;;;;;;;26.91;25.60;99410.91;5060005;28;20483;-68
2021/05/09 08:50:28;;;;;;;1.53;1.17;;;;;;;27.69;24.54;99405.34;5062491;28;21022;-68
2021/05/09 08:52:55;;;;;;;1.60;1.17;;;;;;;27.74;24.90;99405.34;5079501;28;20474;-69
2021/05/09 08:55:24;;;;;;;2.13;1.20;;;;;;;27.79;24.85;99401.75;5079641;28;20447;-68
2021/05/09 08:57:50;;;;;;;1.80;1.30;;;;;;;29.21;22.32;99401.63;5078790;28;20452;-68
2021/05/09 09:00:17;;;;;;;1.33;1.10;;;;;;;27.86;24.18;99398.72;5081064;28;20463;-68
2021/05/09 09:02:45;;;;;;;2.10;1.20;;;;;;;27.58;23.69;99388.00;5072464;28;20445;-68
2021/05/09 09:05:12;;;;;;;2.07;1.10;;;;;;;29.55;21.59;99380.75;5066142;28;20436;-69
2021/05/09 09:07:47;;;;;;;1.90;1.20;;;;;;;28.23;23.08;99376.44;5074630;28;20460;-68
2021/05/09 09:10:30;;;;;;;1.47;0.90;;;;;;;30.93;21.17;99362.75;5060290;28;20486;-69
2021/05/09 09:12:59;;;;;;;1.37;0.87;;;;;;;29.17;20.69;99363.97;5071008;28;20487;-68
2021/05/09 09:15:25;;;;;;;1.47;0.90;;;;;;;29.42;21.60;99362.94;5081425;28;20539;-68
2021/05/09 09:17:52;;;;;;;3.00;1.20;;;;;;;28.85;22.50;99362.47;5074681;28;20455;-69
2021/05/09 09:20:18;;;;;;;2.20;1.10;;;;;;;29.58;20.50;99360.88;5066312;28;20510;-69
2021/05/09 09:22:56;;;;;;;1.20;1.10;;;;;;;28.55;22.55;99347.75;5081135;28;20440;-69
2021/05/09 09:25:24;;;;;;;3.13;1.00;;;;;;;29.44;20.72;99350.56;5080232;28;20452;-69
2021/05/09 09:27:51;;;;;;;3.07;1.20;;;;;;;30.07;20.27;99339.78;5081220;28;21076;-68
2021/05/09 09:30:18;;;;;;;2.50;1.47;;;;;;;29.22;21.15;99344.66;5080202;28;21078;-69
2021/05/09 09:33:13;;;;;;;2.40;1.60;;;;;;;29.03;22.77;99339.00;5081297;28;20515;-68
2021/05/09 09:35:40;;;;;;;1.10;0.90;;;;;;;30.66;20.41;99326.69;5080789;28;20475;-69
2021/05/09 09:38:27;;;;;;;1.23;1.00;;;;;;;29.74;20.71;99321.09;5081330;28;20497;-69
2021/05/09 09:41:15;;;;;;;1.40;0.93;;;;;;;29.17;22.36;99318.00;5071260;28;21111;-68
2021/05/09 09:43:43;;;;;;;1.40;1.20;;;;;;;30.68;21.48;99311.50;5062413;28;20451;-69
2021/05/09 09:46:27;;;;;;;2.40;1.20;;;;;;;29.89;22.18;99306.34;5089039;28;20575;-68
2021/05/09 09:48:54;;;;;;;2.77;1.20;;;;;;;30.20;21.25;99303.25;5071888;28;20455;-68
2021/05/09 09:51:20;;;;;;;2.13;1.20;;;;;;;29.78;21.69;99302.06;5064206;28;20532;-68
2021/05/09 09:53:47;;;;;;;1.60;1.10;;;;;;;30.06;21.46;99285.78;5061931;28;20445;-68
2021/05/09 09:56:14;;;;;;;2.07;0.87;;;;;;;29.78;22.44;99289.09;5060081;28;20905;-69
2021/05/09 09:58:42;;;;;;;2.00;1.00;;;;;;;29.64;22.52;99277.13;5070847;28;20448;-69
2021/05/09 10:01:09;;;;;;;4.53;1.17;;;;;;;29.03;23.48;99275.69;5079677;28;20854;-68
2021/05/09 10:03:35;;;;;;;2.40;1.23;;;;;;;29.70;23.50;99273.19;5080293;28;20470;-68
2021/05/09 10:06:03;;;;;;;2.17;1.30;;;;;;;28.07;25.31;99260.25;5074111;28;20564;-69
2021/05/09 10:08:29;;;;;;;2.20;1.43;;;;;;;30.51;23.08;99256.00;5068046;28;20563;-69
2021/05/09 10:10:55;;;;;;;1.70;1.30;;;;;;;30.14;23.55;99255.63;5077735;28;20485;-69
2021/05/09 10:13:22;;;;;;;2.80;1.40;;;;;;;30.15;23.82;99267.47;5075251;28;20464;-69
2021/05/09 10:15:48;;;;;;;1.50;1.37;;;;;;;28.76;24.46;99263.22;5076816;28;20479;-69
2021/05/09 10:18:15;;;;;;;2.30;1.20;;;;;;;29.48;24.51;99263.50;5078363;28;20479;-68
2021/05/09 10:20:42;;;;;;;1.97;1.40;;;;;;;30.02;24.39;99261.56;5063746;28;20485;-68
2021/05/09 10:23:09;;;;;;;4.40;1.77;;;;;;;31.07;22.56;99260.69;5044090;28;21673;-69
2021/05/09 10:25:46;;;;;;;2.67;1.70;;;;;;;29.67;25.23;99260.81;5058620;28;20547;-69
2021/05/09 10:28:13;;;;;;;2.03;1.83;;;;;;;30.07;24.87;99248.81;5057833;28;20503;-68
2021/05/09 10:30:50;;;;;;;2.37;1.37;;;;;;;29.85;24.67;99247.44;5059103;28;20476;-69
2021/05/09 10:33:48;;;;;;;2.80;1.43;;;;;;;30.11;25.32;99230.59;5060284;28;20451;-71
2021/05/09 10:36:40;;;;;;;3.03;2.00;;;;;;;30.28;25.17;99241.94;5049769;28;20485;-69
2021/05/09 10:39:13;;;;;;;3.40;1.40;;;;;;;31.21;23.66;99241.41;5059243;28;20444;-72
2021/05/09 10:42:15;;;;;;;2.70;1.43;;;;;;;31.48;24.16;99242.59;5071345;28;20472;-68
2021/05/09 10:44:45;;;;;;;3.80;1.50;;;;;;;30.67;23.96;99242.81;5067150;28;20459;-69
2021/05/09 10:47:14;;;;;;;2.70;1.63;;;;;;;30.48;24.83;99238.09;5070825;28;20476;-68
2021/05/09 10:50:24;;;;;;;2.30;1.50;;;;;;;30.53;24.55;99242.72;5057648;28;20453;-68
2021/05/09 10:52:50;;;;;;;2.40;1.63;;;;;;;30.48;25.18;99227.06;5030784;28;20473;-70
2021/05/09 10:55:40;;;;;;;2.23;2.00;;;;;;;31.26;24.05;99222.00;5035983;28;20576;-70
2021/05/09 10:58:07;;;;;;;2.10;1.40;;;;;;;31.14;23.99;99221.66;5018055;28;20552;-70
2021/05/09 11:01:16;;;;;;;2.40;1.80;;;;;;;29.61;25.77;99215.16;5019537;28;20865;-69
2021/05/09 11:03:49;;;;;;;2.00;1.80;;;;;;;29.88;27.16;99201.94;5018028;28;20455;-68
2021/05/09 11:06:16;;;;;;;2.13;1.30;;;;;;;29.65;26.04;99216.22;5018313;28;20486;-69
2021/05/09 11:08:59;;;;;;;3.40;1.70;;;;;;;30.28;25.51;99203.34;5018339;28;20494;-70
2021/05/09 11:12:10;;;;;;;2.23;1.73;;;;;;;29.61;27.00;99192.31;5017930;28;20486;-72
2021/05/09 11:14:38;;;;;;;4.47;2.10;;;;;;;30.21;25.39;99189.91;5016457;28;20638;-68
2021/05/09 11:17:16;;;;;;;2.17;1.67;;;;;;;30.14;25.74;99183.16;5010061;28;20937;-69
2021/05/09 11:19:50;;;;;;;3.73;1.63;;;;;;;29.23;26.21;99184.69;5016404;28;20561;-69
2021/05/09 11:22:21;;;;;;;3.50;1.50;;;;;;;29.73;26.62;99167.09;5017579;28;20486;-68
2021/05/09 11:24:56;;;;;;;4.53;1.60;;;;;;;30.41;25.53;99166.78;5018252;28;20431;-70
2021/05/09 11:27:22;;;;;;;3.03;1.70;;;;;;;30.81;25.55;99160.91;5016147;28;20482;-69
2021/05/09 11:29:51;;;;;;;2.53;1.70;;;;;;;30.92;25.78;99145.81;5059711;28;20457;-69
2021/05/09 11:32:18;;;;;;;1.63;1.50;;;;;;;30.11;26.09;99137.69;5049845;28;20505;-70
2021/05/09 11:34:55;;;;;;;2.03;1.40;;;;;;;29.98;26.75;99144.75;5057617;28;20436;-70
2021/05/09 11:37:23;;;;;;;1.50;1.40;;;;;;;30.23;25.27;99129.78;5048605;28;20472;-68